sensor_id;sensor_type;location;lat;lon;timestamp;pressure;altitude;pressure_sealevel;temperature;humidity
71621;BME280;59471;42.254;23.102;2023-02-02T00:00:54;96110.31;;;0.44;78.69
71621;BME280;59471;42.254;23.102;2023-02-02T00:03:20;96117.78;;;0.36;78.66
71621;BME280;59471;42.254;23.102;2023-02-02T00:05:52;96110.69;;;0.63;78.52
71621;BME280;59471;42.254;23.102;2023-02-02T00:08:19;96114.16;;;0.62;78.34
71621;BME280;59471;42.254;23.102;2023-02-02T00:10:45;96115.97;;;0.12;79.68
71621;BME280;59471;42.254;23.102;2023-02-02T00:13:12;96114.97;;;0.02;79.78
71621;BME280;59471;42.254;23.102;2023-02-02T00:15:38;96118.44;;;0.27;79.94
71621;BME280;59471;42.254;23.102;2023-02-02T00:18:05;96122.72;;;0.39;78.96
71621;BME280;59471;42.254;23.102;2023-02-02T00:20:31;96124.13;;;0.43;78.49
71621;BME280;59471;42.254;23.102;2023-02-02T00:23:01;96119.53;;;0.59;78.11
71621;BME280;59471;42.254;23.102;2023-02-02T00:25:27;96120.22;;;0.13;79.54
71621;BME280;59471;42.254;23.102;2023-02-02T00:27:52;96108.97;;;0.14;79.06
71621;BME280;59471;42.254;23.102;2023-02-02T00:30:18;96116.19;;;0.09;79.08
71621;BME280;59471;42.254;23.102;2023-02-02T00:32:44;96112.50;;;0.13;79.50
71621;BME280;59471;42.254;23.102;2023-02-02T00:35:12;96100.94;;;0.06;80.14
71621;BME280;59471;42.254;23.102;2023-02-02T00:37:38;96105.47;;;0.15;79.16
71621;BME280;59471;42.254;23.102;2023-02-02T00:40:05;96111.31;;;0.30;78.90
71621;BME280;59471;42.254;23.102;2023-02-02T00:42:31;96109.97;;;0.25;78.90
71621;BME280;59471;42.254;23.102;2023-02-02T00:44:56;96107.56;;;0.10;79.41
71621;BME280;59471;42.254;23.102;2023-02-02T00:47:44;96102.16;;;0.26;79.37
71621;BME280;59471;42.254;23.102;2023-02-02T00:50:14;96115.63;;;0.30;79.39
71621;BME280;59471;42.254;23.102;2023-02-02T00:52:41;96113.16;;;0.28;79.61
71621;BME280;59471;42.254;23.102;2023-02-02T00:55:08;96109.28;;;0.46;78.52
71621;BME280;59471;42.254;23.102;2023-02-02T00:57:34;96096.53;;;0.45;78.78
71621;BME280;59471;42.254;23.102;2023-02-02T01:00:00;96104.59;;;0.64;79.42
71621;BME280;59471;42.254;23.102;2023-02-02T01:02:25;96109.56;;;0.79;78.19
71621;BME280;59471;42.254;23.102;2023-02-02T01:04:51;96112.53;;;0.61;78.59
71621;BME280;59471;42.254;23.102;2023-02-02T01:07:16;96113.78;;;0.56;78.65
71621;BME280;59471;42.254;23.102;2023-02-02T01:09:42;96109.97;;;0.25;79.73
71621;BME280;59471;42.254;23.102;2023-02-02T01:12:07;96119.63;;;0.34;79.99
71621;BME280;59471;42.254;23.102;2023-02-02T01:14:33;96106.28;;;0.29;80.70
71621;BME280;59471;42.254;23.102;2023-02-02T01:16:59;96113.91;;;0.17;80.35
71621;BME280;59471;42.254;23.102;2023-02-02T01:19:24;96105.16;;;0.44;80.32
71621;BME280;59471;42.254;23.102;2023-02-02T01:21:50;96101.16;;;0.40;79.80
71621;BME280;59471;42.254;23.102;2023-02-02T01:24:15;96099.31;;;0.42;79.12
71621;BME280;59471;42.254;23.102;2023-02-02T01:26:41;96095.75;;;0.19;79.97
71621;BME280;59471;42.254;23.102;2023-02-02T01:29:07;96093.88;;;0.34;79.73
71621;BME280;59471;42.254;23.102;2023-02-02T01:31:33;96095.38;;;0.12;80.32
71621;BME280;59471;42.254;23.102;2023-02-02T01:33:59;96087.97;;;0.08;80.20
71621;BME280;59471;42.254;23.102;2023-02-02T01:36:24;96099.66;;;0.25;79.56
71621;BME280;59471;42.254;23.102;2023-02-02T01:38:50;96086.44;;;0.42;78.96
71621;BME280;59471;42.254;23.102;2023-02-02T01:41:21;96084.06;;;0.63;78.38
71621;BME280;59471;42.254;23.102;2023-02-02T01:43:51;96089.34;;;0.61;77.89
71621;BME280;59471;42.254;23.102;2023-02-02T01:46:24;96085.00;;;0.38;78.99
71621;BME280;59471;42.254;23.102;2023-02-02T01:51:48;96094.38;;;0.02;81.07
71621;BME280;59471;42.254;23.102;2023-02-02T01:54:26;96084.03;;;0.15;80.27
71621;BME280;59471;42.254;23.102;2023-02-02T01:57:08;96070.91;;;0.31;80.32
71621;BME280;59471;42.254;23.102;2023-02-02T01:59:36;96064.00;;;0.55;79.47
71621;BME280;59471;42.254;23.102;2023-02-02T02:02:02;96062.38;;;0.54;78.98
71621;BME280;59471;42.254;23.102;2023-02-02T02:04:29;96070.00;;;0.32;79.42
71621;BME280;59471;42.254;23.102;2023-02-02T02:06:55;96075.63;;;0.37;79.67
71621;BME280;59471;42.254;23.102;2023-02-02T02:09:22;96075.16;;;0.32;79.53
71621;BME280;59471;42.254;23.102;2023-02-02T02:11:48;96072.63;;;0.43;79.10
71621;BME280;59471;42.254;23.102;2023-02-02T02:14:14;96079.41;;;0.44;78.93
71621;BME280;59471;42.254;23.102;2023-02-02T02:23:38;96070.91;;;0.31;80.07
71621;BME280;59471;42.254;23.102;2023-02-02T02:35:26;96069.84;;;0.09;80.40
71621;BME280;59471;42.254;23.102;2023-02-02T02:38:01;96067.16;;;0.11;79.69
71621;BME280;59471;42.254;23.102;2023-02-02T02:40:53;96068.78;;;-0.12;79.69
71621;BME280;59471;42.254;23.102;2023-02-02T02:43:35;96078.94;;;-0.11;79.62
71621;BME280;59471;42.254;23.102;2023-02-02T02:46:06;96066.72;;;-0.20;79.30
71621;BME280;59471;42.254;23.102;2023-02-02T02:48:33;96080.81;;;-0.26;79.94
71621;BME280;59471;42.254;23.102;2023-02-02T02:51:33;96075.03;;;-0.16;78.97
71621;BME280;59471;42.254;23.102;2023-02-02T02:54:11;96088.88;;;-0.43;79.55
71621;BME280;59471;42.254;23.102;2023-02-02T03:08:53;96085.69;;;-0.85;79.58
71621;BME280;59471;42.254;23.102;2023-02-02T03:11:21;96092.13;;;-0.92;79.52
71621;BME280;59471;42.254;23.102;2023-02-02T03:13:47;96093.47;;;-0.99;79.29
71621;BME280;59471;42.254;23.102;2023-02-02T03:16:14;96095.03;;;-0.84;79.96
71621;BME280;59471;42.254;23.102;2023-02-02T03:18:41;96098.38;;;-1.09;79.48
71621;BME280;59471;42.254;23.102;2023-02-02T03:21:06;96101.91;;;-1.64;82.15
71621;BME280;59471;42.254;23.102;2023-02-02T03:23:32;96096.88;;;-1.66;82.34
71621;BME280;59471;42.254;23.102;2023-02-02T03:25:58;96093.56;;;-1.68;82.64
71621;BME280;59471;42.254;23.102;2023-02-02T03:28:25;96087.56;;;-1.81;83.27
71621;BME280;59471;42.254;23.102;2023-02-02T03:30:52;96080.16;;;-1.58;82.49
71621;BME280;59471;42.254;23.102;2023-02-02T03:33:19;96078.50;;;-1.32;81.50
71621;BME280;59471;42.254;23.102;2023-02-02T03:35:45;96076.16;;;-1.77;82.16
71621;BME280;59471;42.254;23.102;2023-02-02T03:38:10;96073.13;;;-1.69;82.58
71621;BME280;59471;42.254;23.102;2023-02-02T03:40:37;96074.53;;;-1.51;82.19
71621;BME280;59471;42.254;23.102;2023-02-02T03:43:03;96071.16;;;-1.51;81.92
71621;BME280;59471;42.254;23.102;2023-02-02T03:45:29;96067.63;;;-1.77;82.40
71621;BME280;59471;42.254;23.102;2023-02-02T03:47:56;96070.94;;;-1.75;82.46
71621;BME280;59471;42.254;23.102;2023-02-02T03:50:22;96067.31;;;-1.58;81.68
71621;BME280;59471;42.254;23.102;2023-02-02T03:52:49;96067.66;;;-1.50;81.35
71621;BME280;59471;42.254;23.102;2023-02-02T03:55:15;96069.44;;;-1.38;80.51
71621;BME280;59471;42.254;23.102;2023-02-02T03:57:41;96079.53;;;-1.35;80.18
71621;BME280;59471;42.254;23.102;2023-02-02T04:00:09;96070.69;;;-1.58;80.41
71621;BME280;59471;42.254;23.102;2023-02-02T04:02:35;96066.47;;;-1.86;81.19
71621;BME280;59471;42.254;23.102;2023-02-02T04:05:00;96073.47;;;-2.02;81.94
71621;BME280;59471;42.254;23.102;2023-02-02T04:07:26;96073.91;;;-1.96;82.11
71621;BME280;59471;42.254;23.102;2023-02-02T04:09:51;96071.59;;;-1.86;81.71
71621;BME280;59471;42.254;23.102;2023-02-02T04:12:17;96080.91;;;-2.12;82.29
71621;BME280;59471;42.254;23.102;2023-02-02T04:14:42;96085.47;;;-1.89;81.97
71621;BME280;59471;42.254;23.102;2023-02-02T04:17:08;96075.94;;;-1.59;80.82
71621;BME280;59471;42.254;23.102;2023-02-02T04:19:33;96083.09;;;-1.65;80.65
71621;BME280;59471;42.254;23.102;2023-02-02T04:21:59;96088.88;;;-2.02;81.01
71621;BME280;59471;42.254;23.102;2023-02-02T04:24:25;96094.75;;;-2.15;82.07
71621;BME280;59471;42.254;23.102;2023-02-02T04:26:50;96090.94;;;-2.36;83.14
71621;BME280;59471;42.254;23.102;2023-02-02T04:29:16;96092.56;;;-2.21;82.83
71621;BME280;59471;42.254;23.102;2023-02-02T04:31:41;96080.22;;;-2.14;82.63
71621;BME280;59471;42.254;23.102;2023-02-02T04:34:07;96090.84;;;-2.20;82.57
71621;BME280;59471;42.254;23.102;2023-02-02T04:36:33;96082.84;;;-2.16;82.21
71621;BME280;59471;42.254;23.102;2023-02-02T04:38:58;96090.00;;;-2.21;83.00
71621;BME280;59471;42.254;23.102;2023-02-02T04:41:24;96092.75;;;-2.24;82.86
71621;BME280;59471;42.254;23.102;2023-02-02T04:43:49;96094.81;;;-2.02;82.57
71621;BME280;59471;42.254;23.102;2023-02-02T04:46:15;96101.19;;;-2.07;83.21
71621;BME280;59471;42.254;23.102;2023-02-02T04:48:41;96099.97;;;-2.02;82.80
71621;BME280;59471;42.254;23.102;2023-02-02T04:51:09;96103.53;;;-1.90;82.63
71621;BME280;59471;42.254;23.102;2023-02-02T04:53:37;96112.97;;;-1.76;81.64
71621;BME280;59471;42.254;23.102;2023-02-02T04:56:08;96115.25;;;-1.86;81.99
71621;BME280;59471;42.254;23.102;2023-02-02T04:58:37;96106.94;;;-1.63;81.54
71621;BME280;59471;42.254;23.102;2023-02-02T05:01:15;96117.03;;;-1.59;80.98
71621;BME280;59471;42.254;23.102;2023-02-02T05:03:44;96116.91;;;-1.58;80.75
71621;BME280;59471;42.254;23.102;2023-02-02T05:06:10;96123.16;;;-2.03;81.48
71621;BME280;59471;42.254;23.102;2023-02-02T05:08:36;96120.69;;;-2.05;82.39
71621;BME280;59471;42.254;23.102;2023-02-02T05:11:21;96126.81;;;-1.79;81.70
71621;BME280;59471;42.254;23.102;2023-02-02T05:13:50;96126.66;;;-2.04;82.31
71621;BME280;59471;42.254;23.102;2023-02-02T05:16:18;96130.84;;;-2.18;83.07
71621;BME280;59471;42.254;23.102;2023-02-02T05:18:48;96130.88;;;-1.89;82.90
71621;BME280;59471;42.254;23.102;2023-02-02T05:21:19;96146.72;;;-1.55;81.70
71621;BME280;59471;42.254;23.102;2023-02-02T05:23:45;96146.66;;;-1.54;82.12
71621;BME280;59471;42.254;23.102;2023-02-02T05:26:14;96148.09;;;-1.91;82.58
71621;BME280;59471;42.254;23.102;2023-02-02T05:28:41;96150.63;;;-1.77;82.52
71621;BME280;59471;42.254;23.102;2023-02-02T05:31:07;96144.41;;;-1.87;82.65
71621;BME280;59471;42.254;23.102;2023-02-02T05:33:33;96137.16;;;-1.80;82.14
71621;BME280;59471;42.254;23.102;2023-02-02T05:35:59;96137.06;;;-1.93;82.59
71621;BME280;59471;42.254;23.102;2023-02-02T05:38:25;96139.25;;;-1.73;82.79
71621;BME280;59471;42.254;23.102;2023-02-02T05:40:50;96135.56;;;-1.54;81.74
71621;BME280;59471;42.254;23.102;2023-02-02T05:43:16;96146.34;;;-1.76;81.84
71621;BME280;59471;42.254;23.102;2023-02-02T05:45:41;96143.66;;;-1.75;82.28
71621;BME280;59471;42.254;23.102;2023-02-02T05:48:12;96141.31;;;-2.06;82.63
71621;BME280;59471;42.254;23.102;2023-02-02T05:50:40;96149.38;;;-2.13;82.83
71621;BME280;59471;42.254;23.102;2023-02-02T05:53:07;96149.75;;;-2.19;82.73
71621;BME280;59471;42.254;23.102;2023-02-02T05:55:34;96148.28;;;-2.23;82.70
71621;BME280;59471;42.254;23.102;2023-02-02T05:58:00;96146.63;;;-1.95;83.08
71621;BME280;59471;42.254;23.102;2023-02-02T06:00:25;96147.03;;;-1.74;81.82
71621;BME280;59471;42.254;23.102;2023-02-02T06:02:51;96143.47;;;-1.72;81.20
71621;BME280;59471;42.254;23.102;2023-02-02T06:05:16;96143.47;;;-1.72;80.50
71621;BME280;59471;42.254;23.102;2023-02-02T06:07:42;96140.47;;;-1.93;80.80
71621;BME280;59471;42.254;23.102;2023-02-02T06:10:08;96137.25;;;-1.96;81.07
71621;BME280;59471;42.254;23.102;2023-02-02T06:12:33;96146.72;;;-1.97;81.00
71621;BME280;59471;42.254;23.102;2023-02-02T06:14:59;96147.00;;;-2.30;81.68
71621;BME280;59471;42.254;23.102;2023-02-02T06:17:24;96144.97;;;-2.53;83.16
71621;BME280;59471;42.254;23.102;2023-02-02T06:19:50;96146.28;;;-2.32;83.86
71621;BME280;59471;42.254;23.102;2023-02-02T06:22:15;96154.25;;;-2.08;82.17
71621;BME280;59471;42.254;23.102;2023-02-02T06:24:41;96154.69;;;-1.87;81.60
71621;BME280;59471;42.254;23.102;2023-02-02T06:27:06;96160.38;;;-1.96;81.59
71621;BME280;59471;42.254;23.102;2023-02-02T06:29:32;96164.97;;;-2.16;81.55
71621;BME280;59471;42.254;23.102;2023-02-02T06:31:57;96170.91;;;-2.15;82.15
71621;BME280;59471;42.254;23.102;2023-02-02T06:34:23;96179.78;;;-2.35;82.70
71621;BME280;59471;42.254;23.102;2023-02-02T06:36:48;96188.44;;;-2.07;82.17
71621;BME280;59471;42.254;23.102;2023-02-02T06:39:14;96195.38;;;-2.38;82.85
71621;BME280;59471;42.254;23.102;2023-02-02T06:41:40;96190.13;;;-2.51;83.90
71621;BME280;59471;42.254;23.102;2023-02-02T06:44:05;96188.97;;;-2.17;83.35
71621;BME280;59471;42.254;23.102;2023-02-02T06:46:31;96197.38;;;-2.15;84.50
71621;BME280;59471;42.254;23.102;2023-02-02T06:48:57;96193.56;;;-2.07;84.35
71621;BME280;59471;42.254;23.102;2023-02-02T06:51:22;96183.09;;;-1.90;84.47
71621;BME280;59471;42.254;23.102;2023-02-02T06:53:48;96183.53;;;-1.69;83.62
71621;BME280;59471;42.254;23.102;2023-02-02T06:56:14;96182.44;;;-1.65;83.85
71621;BME280;59471;42.254;23.102;2023-02-02T06:58:40;96187.50;;;-1.64;83.95
71621;BME280;59471;42.254;23.102;2023-02-02T07:01:09;96191.22;;;-1.55;83.48
71621;BME280;59471;42.254;23.102;2023-02-02T07:03:36;96186.84;;;-1.26;83.70
71621;BME280;59471;42.254;23.102;2023-02-02T07:06:16;96188.56;;;-1.53;84.61
71621;BME280;59471;42.254;23.102;2023-02-02T07:08:44;96186.50;;;-1.34;83.92
71621;BME280;59471;42.254;23.102;2023-02-02T07:11:10;96186.13;;;-1.01;83.18
71621;BME280;59471;42.254;23.102;2023-02-02T07:13:36;96186.94;;;-1.00;83.36
71621;BME280;59471;42.254;23.102;2023-02-02T07:16:03;96194.19;;;-0.80;83.09
71621;BME280;59471;42.254;23.102;2023-02-02T07:18:30;96183.56;;;-1.01;83.55
71621;BME280;59471;42.254;23.102;2023-02-02T07:20:59;96182.25;;;-0.81;83.38
71621;BME280;59471;42.254;23.102;2023-02-02T07:23:28;96189.28;;;-0.57;82.71
71621;BME280;59471;42.254;23.102;2023-02-02T07:26:01;96198.78;;;-0.45;81.80
71621;BME280;59471;42.254;23.102;2023-02-02T07:28:27;96200.34;;;-0.42;82.20
71621;BME280;59471;42.254;23.102;2023-02-02T07:30:53;96188.50;;;-0.45;82.21
71621;BME280;59471;42.254;23.102;2023-02-02T07:33:19;96195.13;;;-0.15;81.98
71621;BME280;59471;42.254;23.102;2023-02-02T07:35:44;96192.44;;;-0.14;81.75
71621;BME280;59471;42.254;23.102;2023-02-02T07:38:10;96186.03;;;-0.34;82.18
71621;BME280;59471;42.254;23.102;2023-02-02T07:40:35;96189.44;;;-0.20;81.88
71621;BME280;59471;42.254;23.102;2023-02-02T07:43:01;96195.13;;;-0.15;81.41
71621;BME280;59471;42.254;23.102;2023-02-02T07:45:26;96194.16;;;-0.53;83.41
71621;BME280;59471;42.254;23.102;2023-02-02T07:47:56;96205.03;;;-0.62;83.59
71621;BME280;59471;42.254;23.102;2023-02-02T07:50:22;96194.91;;;-0.38;83.26
71621;BME280;59471;42.254;23.102;2023-02-02T07:52:49;96197.97;;;-0.07;82.83
71621;BME280;59471;42.254;23.102;2023-02-02T07:55:15;96187.69;;;-0.33;82.54
71621;BME280;59471;42.254;23.102;2023-02-02T07:57:41;96186.03;;;-0.34;81.75
71621;BME280;59471;42.254;23.102;2023-02-02T08:00:07;96184.81;;;-0.15;81.10
71621;BME280;59471;42.254;23.102;2023-02-02T08:02:33;96188.41;;;-0.05;81.21
71621;BME280;59471;42.254;23.102;2023-02-02T08:04:59;96179.13;;;0.05;81.58
71621;BME280;59471;42.254;23.102;2023-02-02T08:07:25;96167.06;;;0.18;81.46
71621;BME280;59471;42.254;23.102;2023-02-02T08:09:50;96163.38;;;0.22;80.65
71621;BME280;59471;42.254;23.102;2023-02-02T08:12:17;96159.47;;;0.04;81.25
71621;BME280;59471;42.254;23.102;2023-02-02T08:14:43;96162.28;;;0.38;80.15
71621;BME280;59471;42.254;23.102;2023-02-02T08:17:09;96164.16;;;0.36;79.33
71621;BME280;59471;42.254;23.102;2023-02-02T08:19:34;96157.53;;;0.44;78.92
71621;BME280;59471;42.254;23.102;2023-02-02T08:22:00;96154.91;;;0.20;79.12
71621;BME280;59471;42.254;23.102;2023-02-02T08:24:25;96155.69;;;0.34;79.55
71621;BME280;59471;42.254;23.102;2023-02-02T08:26:51;96153.47;;;0.29;79.20
71621;BME280;59471;42.254;23.102;2023-02-02T08:29:16;96155.63;;;0.59;79.40
71621;BME280;59471;42.254;23.102;2023-02-02T08:31:43;96143.53;;;0.73;78.24
71621;BME280;59471;42.254;23.102;2023-02-02T08:34:10;96148.06;;;0.93;77.70
71621;BME280;59471;42.254;23.102;2023-02-02T08:36:36;96143.56;;;0.84;77.00
71621;BME280;59471;42.254;23.102;2023-02-02T08:39:08;96143.94;;;0.90;76.05
71621;BME280;59471;42.254;23.102;2023-02-02T08:41:35;96146.72;;;0.76;76.26
71621;BME280;59471;42.254;23.102;2023-02-02T08:44:05;96134.25;;;0.94;76.61
71621;BME280;59471;42.254;23.102;2023-02-02T08:46:34;96128.84;;;0.97;75.53
71621;BME280;59471;42.254;23.102;2023-02-02T08:49:00;96134.78;;;1.10;75.20
71621;BME280;59471;42.254;23.102;2023-02-02T08:51:26;96135.69;;;1.33;74.31
71621;BME280;59471;42.254;23.102;2023-02-02T08:53:51;96139.22;;;1.44;74.74
71621;BME280;59471;42.254;23.102;2023-02-02T08:56:20;96134.66;;;1.47;73.53
71621;BME280;59471;42.254;23.102;2023-02-02T08:58:51;96131.63;;;1.65;74.16
71621;BME280;59471;42.254;23.102;2023-02-02T09:01:26;96129.75;;;1.67;73.19
71621;BME280;59471;42.254;23.102;2023-02-02T09:03:57;96128.59;;;1.82;73.30
71621;BME280;59471;42.254;23.102;2023-02-02T09:06:31;96135.66;;;1.91;73.12
71621;BME280;59471;42.254;23.102;2023-02-02T09:08:58;96120.16;;;1.91;72.67
71621;BME280;59471;42.254;23.102;2023-02-02T09:11:24;96121.66;;;1.82;72.32
71621;BME280;59471;42.254;23.102;2023-02-02T09:13:54;96114.16;;;1.91;73.09
71621;BME280;59471;42.254;23.102;2023-02-02T09:16:23;96114.97;;;2.14;71.07
71621;BME280;59471;42.254;23.102;2023-02-02T09:18:50;96107.00;;;2.05;70.98
71621;BME280;59471;42.254;23.102;2023-02-02T09:21:17;96112.16;;;2.17;71.13
71621;BME280;59471;42.254;23.102;2023-02-02T09:23:44;96113.31;;;2.35;71.11
71621;BME280;59471;42.254;23.102;2023-02-02T09:28:41;96104.81;;;2.55;70.71
71621;BME280;59471;42.254;23.102;2023-02-02T09:31:08;96098.16;;;2.74;70.68
71621;BME280;59471;42.254;23.102;2023-02-02T09:33:35;96087.97;;;2.61;69.59
71621;BME280;59471;42.254;23.102;2023-02-02T09:36:27;96085.03;;;2.66;69.60
71621;BME280;59471;42.254;23.102;2023-02-02T09:38:53;96071.50;;;2.73;69.91
71621;BME280;59471;42.254;23.102;2023-02-02T09:49:34;96062.91;;;3.26;68.97
71621;BME280;59471;42.254;23.102;2023-02-02T09:52:13;96059.47;;;3.46;69.13
71621;BME280;59471;42.254;23.102;2023-02-02T09:54:44;96050.16;;;3.65;68.25
71621;BME280;59471;42.254;23.102;2023-02-02T09:58:38;96043.41;;;3.83;67.26
71621;BME280;59471;42.254;23.102;2023-02-02T10:00:35;96030.63;;;3.91;68.03
71621;BME280;59471;42.254;23.102;2023-02-02T10:03:09;96019.09;;;4.15;66.60
71621;BME280;59471;42.254;23.102;2023-02-02T10:06:13;96015.31;;;4.29;67.11
71621;BME280;59471;42.254;23.102;2023-02-02T10:11:57;96005.66;;;4.79;63.28
71621;BME280;59471;42.254;23.102;2023-02-02T10:14:45;95995.13;;;4.91;62.95
71621;BME280;59471;42.254;23.102;2023-02-02T10:19:47;95989.03;;;5.29;61.84
71621;BME280;59471;42.254;23.102;2023-02-02T10:22:23;95981.88;;;5.41;61.08
71621;BME280;59471;42.254;23.102;2023-02-02T10:24:52;95998.53;;;5.48;62.12
71621;BME280;59471;42.254;23.102;2023-02-02T10:27:39;95991.47;;;5.77;60.48
71621;BME280;59471;42.254;23.102;2023-02-02T10:30:18;95991.47;;;6.05;60.13
71621;BME280;59471;42.254;23.102;2023-02-02T10:35:52;95975.72;;;6.34;57.00
71621;BME280;59471;42.254;23.102;2023-02-02T10:38:49;95976.38;;;6.72;53.25
71621;BME280;59471;42.254;23.102;2023-02-02T10:44:55;95964.28;;;6.89;54.18
71621;BME280;59471;42.254;23.102;2023-02-02T10:47:32;95961.16;;;7.03;52.41
71621;BME280;59471;42.254;23.102;2023-02-02T10:50:15;95960.47;;;7.01;51.69
71621;BME280;59471;42.254;23.102;2023-02-02T10:52:55;95952.47;;;6.94;52.88
71621;BME280;59471;42.254;23.102;2023-02-02T10:55:40;95945.75;;;7.10;52.88
71621;BME280;59471;42.254;23.102;2023-02-02T11:00:40;95948.53;;;7.16;50.12
71621;BME280;59471;42.254;23.102;2023-02-02T11:03:11;95941.13;;;7.30;50.73
71621;BME280;59471;42.254;23.102;2023-02-02T11:05:38;95938.22;;;7.33;50.78
71621;BME280;59471;42.254;23.102;2023-02-02T11:08:37;95934.56;;;7.52;50.85
71621;BME280;59471;42.254;23.102;2023-02-02T11:11:16;95934.19;;;7.47;51.08
71621;BME280;59471;42.254;23.102;2023-02-02T11:13:50;95924.31;;;7.58;52.89
71621;BME280;59471;42.254;23.102;2023-02-02T11:16:21;95909.50;;;7.59;51.94
71621;BME280;59471;42.254;23.102;2023-02-02T11:18:54;95920.91;;;7.58;51.77
71621;BME280;59471;42.254;23.102;2023-02-02T11:23:58;95907.06;;;7.57;51.62
71621;BME280;59471;42.254;23.102;2023-02-02T11:26:27;95907.00;;;7.83;50.45
71621;BME280;59471;42.254;23.102;2023-02-02T11:29:16;95906.06;;;8.09;50.14
71621;BME280;59471;42.254;23.102;2023-02-02T11:31:45;95896.75;;;8.06;50.09
71621;BME280;59471;42.254;23.102;2023-02-02T11:34:20;95893.53;;;8.04;50.44
71621;BME280;59471;42.254;23.102;2023-02-02T11:39:22;95888.13;;;7.98;46.61
71621;BME280;59471;42.254;23.102;2023-02-02T11:41:47;95881.81;;;8.17;48.75
71621;BME280;59471;42.254;23.102;2023-02-02T11:44:24;95888.16;;;8.30;46.46
71621;BME280;59471;42.254;23.102;2023-02-02T11:46:51;95887.53;;;8.36;47.54
71621;BME280;59471;42.254;23.102;2023-02-02T11:49:19;95884.28;;;8.51;46.11
71621;BME280;59471;42.254;23.102;2023-02-02T11:52:03;95876.13;;;8.29;47.68
71621;BME280;59471;42.254;23.102;2023-02-02T11:54:31;95878.53;;;8.15;45.30
71621;BME280;59471;42.254;23.102;2023-02-02T11:57:00;95878.38;;;8.24;46.51
71621;BME280;59471;42.254;23.102;2023-02-02T11:59:42;95875.16;;;8.39;46.63
71621;BME280;59471;42.254;23.102;2023-02-02T12:04:38;95857.03;;;8.53;46.54
71621;BME280;59471;42.254;23.102;2023-02-02T12:07:33;95851.81;;;8.70;46.35
71621;BME280;59471;42.254;23.102;2023-02-02T12:10:05;95847.25;;;8.80;46.55
71621;BME280;59471;42.254;23.102;2023-02-02T12:15:46;95830.94;;;8.53;45.35
71621;BME280;59471;42.254;23.102;2023-02-02T12:24:30;95817.19;;;8.76;46.06
71621;BME280;59471;42.254;23.102;2023-02-02T13:01:17;95772.56;;;8.38;44.43
71621;BME280;59471;42.254;23.102;2023-02-02T13:12:38;95762.25;;;8.28;45.24
71621;BME280;59471;42.254;23.102;2023-02-02T13:15:11;95764.25;;;8.18;45.26
71621;BME280;59471;42.254;23.102;2023-02-02T13:17:45;95760.78;;;8.26;44.72
71621;BME280;59471;42.254;23.102;2023-02-02T13:23:14;95757.72;;;8.22;45.21
71621;BME280;59471;42.254;23.102;2023-02-02T13:25:49;95762.13;;;8.30;44.77
71621;BME280;59471;42.254;23.102;2023-02-02T13:28:41;95763.41;;;8.09;43.23
71621;BME280;59471;42.254;23.102;2023-02-02T13:31:42;95755.75;;;8.00;44.33
71621;BME280;59471;42.254;23.102;2023-02-02T13:37:24;95754.63;;;8.02;44.58
71621;BME280;59471;42.254;23.102;2023-02-02T13:40:05;95757.88;;;7.96;
71621;BME280;59471;42.254;23.102;2023-02-02T14:00:14;95750.38;;;7.93;44.76
71621;BME280;59471;42.254;23.102;2023-02-02T14:02:51;95767.34;;;7.97;42.41
71621;BME280;59471;42.254;23.102;2023-02-02T14:05:36;95794.25;;;7.98;42.22
71621;BME280;59471;42.254;23.102;2023-02-02T14:08:23;95814.28;;;7.97;42.61
71621;BME280;59471;42.254;23.102;2023-02-02T14:18:56;95858.47;;;6.80;51.30
71621;BME280;59471;42.254;23.102;2023-02-02T14:26:58;95853.09;;;5.93;61.92
71621;BME280;59471;42.254;23.102;2023-02-02T14:42:56;95865.16;;;5.85;63.33
71621;BME280;59471;42.254;23.102;2023-02-02T14:51:28;95853.31;;;6.00;63.16
71621;BME280;59471;42.254;23.102;2023-02-02T14:54:01;95843.78;;;5.91;63.90
71621;BME280;59471;42.254;23.102;2023-02-02T15:08:24;95878.19;;;5.57;66.30
71621;BME280;59471;42.254;23.102;2023-02-02T15:11:04;95904.66;;;5.43;65.89
71621;BME280;59471;42.254;23.102;2023-02-02T15:13:53;95915.78;;;5.25;67.81
71621;BME280;59471;42.254;23.102;2023-02-02T15:16:26;95945.59;;;5.21;67.71
71621;BME280;59471;42.254;23.102;2023-02-02T15:19:04;95955.78;;;5.32;67.83
71621;BME280;59471;42.254;23.102;2023-02-02T15:21:35;95961.00;;;5.32;66.64
71621;BME280;59471;42.254;23.102;2023-02-02T15:24:03;95974.84;;;5.23;67.43
71621;BME280;59471;42.254;23.102;2023-02-02T15:26:35;95981.31;;;5.00;71.40
71621;BME280;59471;42.254;23.102;2023-02-02T15:29:41;95984.22;;;4.77;74.77
71621;BME280;59471;42.254;23.102;2023-02-02T15:32:14;95984.88;;;4.60;78.41
71621;BME280;59471;42.254;23.102;2023-02-02T15:34:45;95990.50;;;4.55;77.17
71621;BME280;59471;42.254;23.102;2023-02-02T15:37:25;95981.47;;;4.69;78.52
71621;BME280;59471;42.254;23.102;2023-02-02T15:40:10;95977.66;;;4.73;78.80
71621;BME280;59471;42.254;23.102;2023-02-02T15:42:47;95963.03;;;4.72;79.11
71621;BME280;59471;42.254;23.102;2023-02-02T15:47:57;95990.75;;;4.62;82.18
71621;BME280;59471;42.254;23.102;2023-02-02T15:50:23;95991.56;;;4.72;81.82
71621;BME280;59471;42.254;23.102;2023-02-02T15:52:50;95992.09;;;4.76;82.45
71621;BME280;59471;42.254;23.102;2023-02-02T15:55:23;95998.41;;;4.83;81.62
71621;BME280;59471;42.254;23.102;2023-02-02T15:58:00;95991.28;;;4.85;82.24
71621;BME280;59471;42.254;23.102;2023-02-02T16:00:32;95985.56;;;4.43;85.37
71621;BME280;59471;42.254;23.102;2023-02-02T16:03:01;95980.50;;;4.22;86.35
71621;BME280;59471;42.254;23.102;2023-02-02T16:05:49;95989.09;;;4.32;85.68
71621;BME280;59471;42.254;23.102;2023-02-02T16:08:36;95987.47;;;4.21;85.12
71621;BME280;59471;42.254;23.102;2023-02-02T16:11:07;96000.25;;;4.13;85.27
71621;BME280;59471;42.254;23.102;2023-02-02T16:13:39;96003.81;;;4.12;86.26
71621;BME280;59471;42.254;23.102;2023-02-02T16:16:40;96030.63;;;4.41;84.84
71621;BME280;59471;42.254;23.102;2023-02-02T16:19:25;96034.16;;;4.40;83.46